首页
METAR-TAF:

METAR-TAF

机场 :

甘露機場

坎卢普斯, 不列颠哥伦比亚, 加拿大

纬度: 50-42N, 经度: 120-27W, 海拔: 345米

当前天气观测

该预报发布于31分钟前的19:00 UTC
风速4节,风向西南
温度 14°C
湿度 63%
气压 1015 hPa
能見度: 64.4公里
少量云层高于6500英尺
多云层高于9000英尺
多云层高于25000英尺

METAR: CYKA 181900Z 22004KT 40SM FEW065 BKN090 BKN250 14/07 A2998 RMK CU1AC4CI2 SLP161

时间: 12:31 (19:31 UTC)

预报

该预报发布于45分钟前的18:46 UTC
预报有效从18日的 19点(UTC)到 19日的 07点(UTC)
风速3节,风向多变
能見度: 10公里
散云层高于6000英尺
多云层高于12000英尺
短暂存在
从 18日的 19点(UTC)到 18日的 21点(UTC)
能見度: 10公里
多云层高于6000英尺
小阵雨
从 18日的 2100点(UTC)
风速8节,风向东转东南
能見度: 10公里
多云层高于6000英尺
阴天层高于12000英尺
短暂存在
从 18日的 21点(UTC)到 19日的 03点(UTC)
风速15节,风向多变,有时为25节阵风
能見度: 10公里
多云层高于5000英尺
小阵雨, 附近有雷暴
从 19日的 0300点(UTC)
风速3节,风向多变
能見度: 10公里
散云层高于6000英尺
散云层高于20000英尺
短暂存在
从 19日的 03点(UTC)到 19日的 07点(UTC)
能見度: 10公里
多云层高于6000英尺
附近有阵雨

TAF: CYKA 181846Z 1819/1907 VRB03KT P6SM SCT060 BKN120 TEMPO 1819/1821 P6SM -SHRA BKN060 FM182100 11008KT P6SM BKN060 OVC120 TEMPO 1821/1903 VRB15G25KT P6SM -SHRA VCTS BKN050 FM190300 VRB03KT P6SM SCT060 SCT200 TEMPO 1903/1907 P6SM VCSH BKN060 RMK NXT FCST BY 190100Z

超过4000个机场的气象观测和天气预报(METAR&TAF报告)。

可查询的气象台以黄色和红色小点在地图上表示。

将鼠标移到小点上方,可查看气象台名称。

然后点击查看天气观测和预报。

如需切换地图:点击带黑十字的绿色按钮放大地图;点击带横线的绿色按钮缩小地图;或者点击绿色箭头查看邻近地区的地图。


METAR-TAF: